Time;durP1;ratioP1;P1;durP2;ratioP2;P2;SDS_P1;SDS_P2;PMS_P1;PMS_P2;Temp;Humidity;BMP_temperature;BMP_pressure;BME280_temperature;BME280_humidity;BME280_pressure;Samples;Min_cycle;Max_cycle;Signal;HPM_P1;HPM_P2
2022/09/21 00:00:33;;;;;;;9.38;5.38;;;;;;;10.32;90.40;102563.75;5045304;28;20048;-80
2022/09/21 00:02:59;;;;;;;5.15;4.30;;;;;;;10.29;89.56;102556.75;5040008;28;20073;-80
2022/09/21 00:05:24;;;;;;;6.18;4.85;;;;;;;10.24;89.57;102564.09;5066029;28;20017;-80
2022/09/21 00:07:50;;;;;;;10.35;4.82;;;;;;;10.21;89.84;102560.69;5044751;28;20029;-80
2022/09/21 00:10:17;;;;;;;7.60;4.47;;;;;;;10.14;89.65;102561.00;5052822;28;20025;-80
2022/09/21 00:12:44;;;;;;;7.90;4.90;;;;;;;10.11;88.73;102563.81;5052277;28;20005;-80
2022/09/21 00:15:10;;;;;;;9.50;4.13;;;;;;;10.08;88.89;102565.75;5052642;28;20059;-81
2022/09/21 00:17:36;;;;;;;6.70;4.20;;;;;;;10.04;89.22;102565.00;5050596;28;20489;-81
2022/09/21 00:20:05;;;;;;;11.00;4.68;;;;;;;10.04;89.55;102570.31;5057771;28;20024;-81
2022/09/21 00:22:32;;;;;;;7.72;4.60;;;;;;;10.00;89.60;102563.44;5057169;28;20081;-80
2022/09/21 00:24:57;;;;;;;8.18;4.53;;;;;;;9.99;89.58;102561.69;5057422;28;20020;-82
2022/09/21 00:27:28;;;;;;;5.90;4.25;;;;;;;9.93;89.84;102572.63;5050151;28;20034;-81
2022/09/21 00:30:02;;;;;;;7.80;4.25;;;;;;;9.89;89.58;102563.94;5039838;28;20030;-81
2022/09/21 00:32:30;;;;;;;8.63;4.35;;;;;;;9.86;89.36;102572.06;5065899;28;20029;-80
2022/09/21 00:34:56;;;;;;;7.75;4.22;;;;;;;9.81;89.03;102572.25;5055372;28;20072;-80
2022/09/21 00:37:22;;;;;;;9.95;4.30;;;;;;;9.70;89.04;102561.25;5055350;28;20033;-81
2022/09/21 00:39:47;;;;;;;7.45;4.20;;;;;;;9.70;89.55;102563.91;5051755;28;20049;-80
2022/09/21 00:42:27;;;;;;;5.68;4.13;;;;;;;9.69;89.75;102569.28;5049254;28;20057;-81
2022/09/21 00:44:53;;;;;;;5.95;4.35;;;;;;;9.66;89.92;102566.75;5055780;28;20033;-82
2022/09/21 00:47:25;;;;;;;7.80;4.15;;;;;;;9.59;90.43;102563.53;5042525;28;20063;-80
2022/09/21 00:49:54;;;;;;;7.25;4.00;;;;;;;9.50;90.07;102551.53;5050276;28;20017;-79
2022/09/21 00:52:23;;;;;;;6.13;4.10;;;;;;;9.54;90.10;102571.72;5068670;28;20017;-80
2022/09/21 00:54:53;;;;;;;4.17;3.77;;;;;;;9.54;89.56;102565.53;5056424;28;20044;-80
2022/09/21 00:57:22;;;;;;;8.98;4.25;;;;;;;9.46;90.24;102565.88;5057909;28;20290;-80
2022/09/21 00:59:53;;;;;;;7.13;4.20;;;;;;;9.44;90.36;102565.97;5044329;28;20025;-79
2022/09/21 01:02:18;;;;;;;4.13;3.70;;;;;;;9.44;90.55;102565.97;5056178;28;20100;-80
2022/09/21 01:04:44;;;;;;;5.68;4.20;;;;;;;9.42;91.17;102567.78;5055691;28;20020;-79
2022/09/21 01:07:17;;;;;;;6.90;3.83;;;;;;;9.29;91.36;102545.38;5056943;28;20025;-80
2022/09/21 01:09:46;;;;;;;6.88;4.00;;;;;;;9.36;90.66;102564.53;5063649;28;20014;-80
2022/09/21 01:12:45;;;;;;;7.00;4.00;;;;;;;9.43;91.06;102571.31;5045113;28;20033;-80
2022/09/21 01:15:26;;;;;;;7.70;4.10;;;;;;;9.42;90.50;102574.91;5044012;28;20041;-81
2022/09/21 01:18:12;;;;;;;6.25;4.07;;;;;;;9.42;90.90;102573.09;5060625;28;20023;-80
2022/09/21 01:21:12;;;;;;;5.72;3.72;;;;;;;9.34;91.48;102564.66;5057563;28;20035;-81
2022/09/21 01:23:44;;;;;;;6.68;3.78;;;;;;;9.37;91.42;102569.78;5045935;28;20064;-81
2022/09/21 01:26:48;;;;;;;8.73;4.00;;;;;;;9.39;91.39;102575.03;5056279;28;20040;-81
2022/09/21 01:29:25;;;;;;;8.48;3.83;;;;;;;9.33;91.59;102570.00;5047794;28;20052;-81
2022/09/21 01:32:04;;;;;;;9.05;4.80;;;;;;;9.33;91.83;102575.31;5058320;28;20060;-81
2022/09/21 01:34:36;;;;;;;5.70;3.72;;;;;;;9.32;91.67;102565.63;5054804;28;20089;-80
2022/09/21 01:37:09;;;;;;;7.03;4.45;;;;;;;9.32;91.86;102569.13;5046428;28;20052;-81
2022/09/21 01:39:38;;;;;;;8.25;3.65;;;;;;;9.32;92.06;102569.13;5056582;28;20025;-82
2022/09/21 01:42:06;;;;;;;7.28;3.97;;;;;;;9.31;92.27;102566.53;5048818;28;20053;-80
2022/09/21 01:44:34;;;;;;;5.85;3.67;;;;;;;9.31;91.84;102553.28;5051811;28;20034;-81
2022/09/21 01:47:02;;;;;;;8.55;4.13;;;;;;;9.31;92.23;102564.78;5054794;28;20081;-81
2022/09/21 01:49:36;;;;;;;8.45;4.57;;;;;;;9.29;91.68;102563.94;5044133;28;20013;-80
2022/09/21 01:52:29;;;;;;;5.88;4.03;;;;;;;9.26;92.05;102567.63;5048586;28;20032;-81
2022/09/21 01:55:03;;;;;;;6.63;3.92;;;;;;;9.25;91.93;102557.06;5048193;28;20042;-81
2022/09/21 01:58:10;;;;;;;5.47;4.28;;;;;;;9.27;92.00;102565.81;5055898;28;20029;-79
2022/09/21 02:00:37;;;;;;;5.60;3.72;;;;;;;9.21;92.39;102563.47;5039744;28;20067;-79
2022/09/21 02:03:13;;;;;;;7.32;4.13;;;;;;;9.16;92.18;102565.41;5049511;28;20078;-79
2022/09/21 02:05:40;;;;;;;9.30;4.15;;;;;;;9.23;92.54;102561.59;5043419;28;20068;-80
2022/09/21 02:08:07;;;;;;;4.88;3.92;;;;;;;9.20;93.05;102567.03;5045645;28;20040;-80
2022/09/21 02:10:38;;;;;;;6.45;4.30;;;;;;;9.17;92.63;102561.84;5053009;28;20369;-80
2022/09/21 02:13:05;;;;;;;4.75;3.72;;;;;;;9.22;92.34;102570.47;5045412;28;20044;-80
2022/09/21 02:15:48;;;;;;;8.98;4.40;;;;;;;9.20;92.55;102562.56;5053586;28;20018;-80
2022/09/21 02:18:41;;;;;;;6.10;4.25;;;;;;;9.08;92.31;102536.59;5046782;28;20033;-81
2022/09/21 02:21:24;;;;;;;5.97;4.57;;;;;;;9.17;92.34;102560.03;5052181;28;20018;-81
2022/09/21 02:24:21;;;;;;;11.90;4.60;;;;;;;9.15;91.79;102559.25;5046844;28;20040;-80
2022/09/21 02:27:22;;;;;;;6.10;4.25;;;;;;;9.10;91.36;102563.06;5044495;28;20024;-80
2022/09/21 02:30:08;;;;;;;4.95;4.32;;;;;;;9.01;91.48;102566.94;5069645;28;20158;-81
2022/09/21 02:32:52;;;;;;;5.80;4.03;;;;;;;9.01;91.52;102562.50;5048949;28;20048;-80
2022/09/21 02:35:35;;;;;;;5.00;4.50;;;;;;;9.00;91.49;102568.72;5056954;28;20061;-80
2022/09/21 02:38:25;;;;;;;8.00;3.97;;;;;;;8.95;91.84;102569.84;5039614;28;20034;-81
2022/09/21 02:41:14;;;;;;;;;;;;;;;9.05;90.37;102572.03;5058133;28;20036;-81
2022/09/21 02:43:49;;;;;;;5.35;4.20;;;;;;;8.91;90.95;102553.22;5044613;28;19916;-80
2022/09/21 02:46:22;;;;;;;5.10;4.53;;;;;;;8.89;91.21;102566.53;5039644;28;20010;-80
2022/09/21 02:48:53;;;;;;;7.05;4.25;;;;;;;8.84;91.23;102547.34;5039792;28;20061;-81
2022/09/21 02:51:24;;;;;;;4.65;4.13;;;;;;;8.85;91.02;102556.13;5044719;28;20104;-79
2022/09/21 02:53:53;;;;;;;4.72;4.28;;;;;;;8.78;91.14;102552.03;5056384;28;20057;-79
2022/09/21 02:56:19;;;;;;;5.78;3.83;;;;;;;8.76;91.36;102559.16;5053467;28;20021;-80
2022/09/21 02:58:49;;;;;;;5.07;3.95;;;;;;;8.58;91.04;102540.44;5062700;28;20022;-79
2022/09/21 03:01:17;;;;;;;5.80;3.75;;;;;;;8.66;90.70;102558.66;5057378;28;20037;-79
2022/09/21 03:03:43;;;;;;;7.55;4.05;;;;;;;8.65;91.25;102570.19;5068260;28;20108;-80
2022/09/21 03:06:09;;;;;;;7.57;4.20;;;;;;;8.65;91.71;102565.75;5047554;28;20038;-80
2022/09/21 03:08:34;;;;;;;6.70;4.00;;;;;;;8.64;91.77;102560.53;5065345;28;20078;-80
2022/09/21 03:10:59;;;;;;;5.97;3.60;;;;;;;8.63;91.12;102564.97;5057752;28;20029;-80
2022/09/21 03:13:25;;;;;;;3.70;3.40;;;;;;;8.59;90.58;102573.09;5057341;28;20061;-81
2022/09/21 03:16:01;;;;;;;5.40;3.80;;;;;;;8.57;90.76;102567.84;5050016;28;20060;-81
2022/09/21 03:18:26;;;;;;;7.15;3.60;;;;;;;8.56;91.20;102563.50;5046062;28;20089;-80
2022/09/21 03:20:52;;;;;;;7.28;3.47;;;;;;;8.54;91.68;102564.47;5053652;28;20033;-79
2022/09/21 03:23:17;;;;;;;5.18;3.50;;;;;;;8.52;91.29;102565.38;5060922;28;20029;-80
2022/09/21 03:25:44;;;;;;;5.93;3.85;;;;;;;8.45;91.37;102552.47;5046632;28;20262;-80
2022/09/21 03:28:12;;;;;;;6.20;4.00;;;;;;;8.51;91.62;102570.78;5049664;28;20045;-80
2022/09/21 03:30:38;;;;;;;6.43;4.30;;;;;;;8.52;91.21;102575.13;5037743;28;20163;-80
2022/09/21 03:33:04;;;;;;;5.30;3.70;;;;;;;8.47;90.97;102575.31;5042603;28;20041;-80
2022/09/21 03:35:32;;;;;;;9.63;4.30;;;;;;;8.46;90.97;102572.72;5055394;28;20025;-80
2022/09/21 03:37:58;;;;;;;7.72;3.78;;;;;;;8.40;90.77;102581.75;5043994;28;20017;-80
2022/09/21 03:40:25;;;;;;;9.57;4.10;;;;;;;8.39;91.04;102581.81;5037370;28;20033;-80
2022/09/21 03:42:50;;;;;;;7.40;3.63;;;;;;;8.34;91.04;102577.56;5055229;28;20052;-80
2022/09/21 03:45:15;;;;;;;3.80;3.40;;;;;;;8.32;90.91;102587.31;5070702;28;20029;-82
2022/09/21 03:47:41;;;;;;;7.88;3.65;;;;;;;8.33;91.28;102580.28;5050178;28;20814;-80
2022/09/21 03:50:07;;;;;;;5.15;3.88;;;;;;;8.29;90.91;102583.94;5045957;28;20021;-80
2022/09/21 03:52:34;;;;;;;10.02;3.67;;;;;;;8.26;91.00;102589.34;5041493;28;20046;-80
2022/09/21 03:55:00;;;;;;;7.93;4.25;;;;;;;8.23;91.17;102581.56;5043892;28;20022;-80
2022/09/21 03:57:25;;;;;;;4.65;3.65;;;;;;;8.22;91.12;102587.75;5049762;28;20054;-79
2022/09/21 03:59:53;;;;;;;5.93;3.60;;;;;;;8.18;91.44;102592.31;5054326;28;20059;-79
2022/09/21 04:02:18;;;;;;;4.43;3.50;;;;;;;8.19;91.24;102588.72;5041634;28;20033;-78
2022/09/21 04:04:43;;;;;;;6.18;3.92;;;;;;;8.16;91.51;102588.88;5046668;28;20090;-80
2022/09/21 04:07:09;;;;;;;4.07;3.28;;;;;;;8.14;91.60;102588.94;5038717;28;20593;-80
2022/09/21 04:09:34;;;;;;;5.22;3.45;;;;;;;8.17;91.33;102584.44;5052341;28;20029;-79
2022/09/21 04:11:59;;;;;;;7.30;3.78;;;;;;;8.18;91.29;102584.38;5039701;28;20950;-80
2022/09/21 04:14:25;;;;;;;6.00;3.45;;;;;;;8.09;90.83;102584.72;5043563;28;20014;-80
2022/09/21 04:16:50;;;;;;;5.60;3.40;;;;;;;8.11;91.20;102585.50;5053054;28;20022;-80
2022/09/21 04:19:17;;;;;;;4.38;3.17;;;;;;;8.11;91.60;102585.50;5054389;28;20128;-80
2022/09/21 04:21:42;;;;;;;6.75;3.40;;;;;;;8.06;91.57;102582.19;5049604;28;20036;-80
2022/09/21 04:24:07;;;;;;;7.57;3.88;;;;;;;8.03;91.78;102585.81;5053036;28;20025;-79
2022/09/21 04:26:35;;;;;;;8.38;3.70;;;;;;;7.99;91.63;102583.34;5051140;28;20102;-79
2022/09/21 04:29:01;;;;;;;5.50;3.38;;;;;;;8.01;91.61;102590.31;5050304;28;20064;-79
2022/09/21 04:31:28;;;;;;;5.38;3.70;;;;;;;8.00;91.84;102593.88;5038315;28;20113;-79
2022/09/21 04:33:55;;;;;;;4.88;3.95;;;;;;;8.00;91.89;102598.31;5048200;28;20029;-79
2022/09/21 04:36:22;;;;;;;5.97;3.60;;;;;;;7.96;91.91;102593.13;5051063;28;20081;-82
2022/09/21 04:38:47;;;;;;;5.70;4.03;;;;;;;7.95;91.69;102596.69;5046191;28;20008;-81
2022/09/21 04:41:14;;;;;;;3.92;3.53;;;;;;;7.90;91.46;102596.00;5050757;28;20072;-79
2022/09/21 04:43:44;;;;;;;5.25;3.70;;;;;;;7.88;92.20;102595.19;5050495;28;20082;-81
2022/09/21 04:46:12;;;;;;;4.82;3.42;;;;;;;7.88;92.03;102599.63;5042318;28;20036;-81
2022/09/21 04:48:38;;;;;;;5.80;3.50;;;;;;;7.84;91.89;102595.34;5053601;28;20064;-80
2022/09/21 04:51:06;;;;;;;4.63;3.45;;;;;;;7.81;91.49;102590.19;5048207;28;20017;-80
2022/09/21 04:53:32;;;;;;;6.45;3.65;;;;;;;7.81;91.65;102591.06;5054903;28;20041;-82
2022/09/21 04:55:57;;;;;;;4.75;3.40;;;;;;;7.81;92.32;102598.09;5051615;28;20053;-82
2022/09/21 04:58:22;;;;;;;7.07;3.88;;;;;;;7.75;92.21;102594.78;5046615;28;20056;-82
2022/09/21 05:00:53;;;;;;;4.35;3.55;;;;;;;7.77;92.38;102597.38;5055395;28;20085;-82
2022/09/21 05:03:19;;;;;;;5.22;3.40;;;;;;;7.76;91.97;102598.28;5053023;28;20080;-82
2022/09/21 05:05:54;;;;;;;4.03;3.63;;;;;;;7.81;92.15;102603.41;5044152;28;20017;-82
2022/09/21 05:10:01;;;;;;;9.18;3.65;;;;;;;7.79;92.26;102595.53;5040117;28;20026;-82
2022/09/21 05:11:11;;;;;;;7.57;3.97;;;;;;;7.73;92.12;102595.78;5052468;28;20037;-81
2022/09/21 05:13:37;;;;;;;6.70;3.72;;;;;;;7.68;92.50;102601.22;5055520;28;20025;-82
2022/09/21 05:16:03;;;;;;;5.05;3.67;;;;;;;7.70;93.03;102602.03;5057087;28;20089;-81
2022/09/21 05:18:28;;;;;;;4.25;3.42;;;;;;;7.70;92.56;102604.66;5048328;28;20022;-81
2022/09/21 05:20:58;;;;;;;5.85;3.45;;;;;;;7.68;92.34;102611.78;5052820;28;20024;-81
2022/09/21 05:23:24;;;;;;;5.53;3.60;;;;;;;7.68;92.39;102606.50;5057201;28;20042;-81
2022/09/21 05:25:50;;;;;;;10.40;3.88;;;;;;;7.66;92.79;102615.41;5050490;28;20021;-81
2022/09/21 05:28:16;;;;;;;5.15;3.40;;;;;;;7.65;92.38;102613.69;5061602;28;20033;-80
2022/09/21 05:30:45;;;;;;;8.30;3.60;;;;;;;7.66;92.52;102615.41;5053115;28;20028;-81
2022/09/21 05:33:15;;;;;;;4.25;3.47;;;;;;;7.66;92.26;102613.63;5050134;28;20037;-81
2022/09/21 05:35:44;;;;;;;7.00;3.47;;;;;;;7.64;92.18;102614.59;5066098;28;20025;-81
2022/09/21 05:38:17;;;;;;;10.32;3.83;;;;;;;7.66;92.00;102625.97;5053869;28;20025;-81
2022/09/21 05:40:42;;;;;;;6.00;3.63;;;;;;;7.65;92.35;102625.13;5048820;28;20025;-82
2022/09/21 05:43:09;;;;;;;6.75;3.58;;;;;;;7.62;92.02;102624.38;5044872;28;20044;-81
2022/09/21 05:45:39;;;;;;;6.10;3.72;;;;;;;7.56;92.80;102623.69;5055316;28;20081;-82
2022/09/21 05:48:26;;;;;;;7.20;4.50;;;;;;;7.59;93.12;102618.28;5054874;28;20052;-81
2022/09/21 05:51:02;;;;;;;6.80;3.60;;;;;;;7.61;93.48;102628.81;5051894;28;20009;-82
2022/09/21 05:54:07;;;;;;;4.15;3.40;;;;;;;7.63;93.13;102624.31;5045563;28;20065;-81
2022/09/21 05:56:50;;;;;;;7.32;3.63;;;;;;;7.67;93.21;102633.84;5052699;28;20060;-81
2022/09/21 05:59:30;;;;;;;6.13;3.80;;;;;;;7.67;93.79;102636.50;5060425;28;20044;-81
2022/09/21 06:02:03;;;;;;;;;;;;;;;7.76;92.27;102640.59;5053675;28;20037;-79
2022/09/21 06:04:29;;;;;;;4.40;4.00;;;;;;;7.68;93.43;102634.75;5041913;28;19923;-80
2022/09/21 06:06:54;;;;;;;6.45;4.10;;;;;;;7.72;93.95;102639.84;5060582;28;20081;-81
2022/09/21 06:09:20;;;;;;;5.43;3.80;;;;;;;7.73;94.29;102638.09;5055514;28;20081;-81
2022/09/21 06:11:46;;;;;;;6.88;4.03;;;;;;;7.73;94.27;102641.59;5063384;28;20021;-81
2022/09/21 06:14:11;;;;;;;6.20;4.03;;;;;;;7.75;94.22;102638.88;5060299;28;20025;-81
2022/09/21 06:16:38;;;;;;;7.18;4.18;;;;;;;7.75;94.29;102634.44;5063950;28;20036;-82
2022/09/21 06:19:03;;;;;;;7.78;4.57;;;;;;;7.70;94.47;102631.09;5057462;28;20041;-82
2022/09/21 06:21:29;;;;;;;5.97;4.47;;;;;;;7.81;94.76;102648.38;5063347;28;20038;-80
2022/09/21 06:23:54;;;;;;;8.15;4.43;;;;;;;7.81;94.67;102643.97;5053723;28;20075;-79
2022/09/21 06:26:19;;;;;;;9.05;4.97;;;;;;;7.83;95.18;102647.41;5056451;28;20052;-80
2022/09/21 06:28:45;;;;;;;7.68;5.03;;;;;;;7.85;94.90;102644.72;5055549;28;20037;-82
2022/09/21 06:31:10;;;;;;;8.93;5.47;;;;;;;7.87;94.83;102650.81;5056818;28;20089;-81
2022/09/21 06:33:36;;;;;;;7.10;5.78;;;;;;;7.90;95.58;102651.56;5054991;28;20033;-81
2022/09/21 06:36:02;;;;;;;9.50;6.20;;;;;;;7.93;96.50;102647.94;5052826;28;20323;-81
2022/09/21 06:38:28;;;;;;;13.05;8.27;;;;;;;7.96;97.47;102638.09;5052509;28;20041;-81
2022/09/21 06:40:53;;;;;;;14.02;8.90;;;;;;;8.03;97.44;102649.34;5054287;28;20033;-81
2022/09/21 06:43:19;;;;;;;15.50;9.30;;;;;;;8.10;98.05;102648.19;5051758;28;20259;-81
2022/09/21 06:45:53;;;;;;;18.83;9.93;;;;;;;8.12;98.62;102640.19;5053909;28;20029;-81
2022/09/21 06:48:18;;;;;;;16.48;10.35;;;;;;;8.23;98.97;102648.59;5049917;28;20076;-80
2022/09/21 06:50:43;;;;;;;20.65;10.88;;;;;;;8.32;99.31;102650.88;5054065;28;20021;-81
2022/09/21 06:53:09;;;;;;;15.57;11.35;;;;;;;8.37;99.69;102641.91;5052291;28;20033;-81
2022/09/21 06:55:34;;;;;;;17.92;11.32;;;;;;;8.41;99.64;102635.56;5053949;28;20025;-80
2022/09/21 06:58:01;;;;;;;16.17;11.05;;;;;;;8.47;99.88;102636.22;5058712;28;20037;-81
2022/09/21 07:00:30;;;;;;;20.50;10.90;;;;;;;8.61;99.81;102646.28;5060961;28;20021;-82
2022/09/21 07:02:55;;;;;;;19.83;10.87;;;;;;;8.71;99.18;102652.09;5052247;28;20052;-80
2022/09/21 07:05:21;;;;;;;15.63;10.20;;;;;;;8.78;98.74;102644.75;5061559;28;20033;-79
2022/09/21 07:07:46;;;;;;;16.60;9.85;;;;;;;8.91;98.60;102659.22;5057575;28;20091;-81
2022/09/21 07:10:11;;;;;;;21.00;10.00;;;;;;;8.97;98.09;102642.19;5053805;28;20037;-81
2022/09/21 07:12:37;;;;;;;16.60;9.20;;;;;;;9.16;97.75;102651.13;5056915;28;20026;-81
2022/09/21 07:15:04;;;;;;;15.30;8.40;;;;;;;9.28;97.05;102652.41;5056214;28;20694;-80
2022/09/21 07:17:34;;;;;;;14.50;9.07;;;;;;;9.45;97.31;102649.03;5046139;28;20040;-80
2022/09/21 07:20:03;;;;;;;15.02;8.68;;;;;;;9.64;96.76;102646.44;5056429;28;20050;-80
2022/09/21 07:22:30;;;;;;;14.98;8.90;;;;;;;9.76;95.83;102643.25;5046430;28;20033;-80
2022/09/21 07:24:56;;;;;;;12.60;8.43;;;;;;;9.99;94.90;102652.84;5041823;28;20052;-80
2022/09/21 07:27:22;;;;;;;17.42;8.32;;;;;;;10.21;94.47;102649.22;5046057;28;20026;-80
2022/09/21 07:29:48;;;;;;;9.65;7.88;;;;;;;10.32;94.12;102638.09;5040520;28;20089;-79
2022/09/21 07:32:14;;;;;;;13.65;8.20;;;;;;;10.58;93.30;102638.69;5046933;28;20032;-79
2022/09/21 07:34:39;;;;;;;11.52;7.72;;;;;;;10.84;92.55;102645.38;5050584;28;20033;-79
2022/09/21 07:37:05;;;;;;;11.98;6.85;;;;;;;10.99;91.71;102641.09;5047741;28;20025;-79
2022/09/21 07:39:30;;;;;;;11.88;7.57;;;;;;;11.27;89.96;102641.47;5043415;28;20026;-79
2022/09/21 07:41:59;;;;;;;9.35;6.82;;;;;;;11.53;88.95;102641.91;5045288;28;20053;-80
2022/09/21 07:44:24;;;;;;;12.55;7.18;;;;;;;11.67;88.62;102641.19;5048937;28;20127;-80
2022/09/21 07:46:50;;;;;;;11.23;6.70;;;;;;;11.90;87.17;102639.09;5048048;28;20037;-79
2022/09/21 07:49:15;;;;;;;12.30;6.60;;;;;;;12.06;85.94;102631.16;5047840;28;20018;-79
2022/09/21 07:51:41;;;;;;;8.73;5.57;;;;;;;12.31;84.44;102636.91;5049315;28;20035;-79
2022/09/21 07:54:09;;;;;;;11.75;5.70;;;;;;;12.47;83.14;102628.03;5046681;28;20045;-79
2022/09/21 07:56:35;;;;;;;8.20;5.15;;;;;;;12.77;82.09;102633.44;5050247;28;20021;-77
2022/09/21 07:59:07;;;;;;;16.67;4.90;;;;;;;12.93;80.88;102641.41;5046432;28;20034;-79
2022/09/21 08:01:39;;;;;;;11.85;5.22;;;;;;;13.12;80.01;102633.19;5055447;28;20034;-79
2022/09/21 08:04:07;;;;;;;10.48;4.72;;;;;;;13.37;77.82;102637.94;5051724;28;20072;-81
2022/09/21 08:06:34;;;;;;;8.77;4.55;;;;;;;13.48;76.33;102634.66;5058616;28;20047;-80
2022/09/21 08:09:01;;;;;;;16.52;4.97;;;;;;;13.66;76.70;102630.03;5057595;28;20033;-79
2022/09/21 08:11:29;;;;;;;7.68;4.40;;;;;;;13.87;75.98;102626.03;5048658;28;20040;-80
2022/09/21 08:13:57;;;;;;;8.32;3.60;;;;;;;14.00;74.45;102625.25;5054698;28;20029;-80
2022/09/21 08:16:22;;;;;;;9.30;3.63;;;;;;;14.16;73.38;102615.31;5049238;28;20089;-81
2022/09/21 08:18:50;;;;;;;7.82;3.75;;;;;;;14.36;71.96;102622.06;5064827;28;20166;-81
2022/09/21 08:21:16;;;;;;;8.20;3.47;;;;;;;14.57;71.83;102627.84;5058200;28;20153;-76
2022/09/21 08:23:41;;;;;;;5.65;3.25;;;;;;;14.75;70.09;102627.59;5061985;28;20112;-77
2022/09/21 08:26:09;;;;;;;7.88;3.00;;;;;;;14.91;68.83;102627.47;5055533;28;20026;-78
2022/09/21 08:28:35;;;;;;;7.13;3.05;;;;;;;15.16;68.00;102629.34;5054329;28;20021;-79
2022/09/21 08:31:02;;;;;;;7.88;2.50;;;;;;;15.41;67.00;102641.06;5048933;28;20087;-80
2022/09/21 08:33:27;;;;;;;6.00;2.30;;;;;;;15.70;67.46;102629.19;5045623;28;20081;-80
2022/09/21 08:35:55;;;;;;;5.28;2.85;;;;;;;15.85;65.44;102638.00;5050702;28;20014;-81
2022/09/21 08:38:21;;;;;;;9.60;3.22;;;;;;;16.08;66.02;102639.03;5058371;28;20083;-78
2022/09/21 08:40:47;;;;;;;5.53;2.80;;;;;;;16.22;63.08;102637.19;5061133;28;20017;-79
2022/09/21 08:43:17;;;;;;;6.55;2.38;;;;;;;16.42;66.42;102638.41;5051923;28;20030;-80
2022/09/21 08:45:45;;;;;;;4.25;2.20;;;;;;;16.47;60.68;102636.28;5066490;28;20021;-81
2022/09/21 08:48:23;;;;;;;6.47;1.85;;;;;;;16.64;63.04;102637.72;5066380;28;20028;-81
2022/09/21 08:50:52;;;;;;;7.38;2.30;;;;;;;16.78;61.60;102636.69;5069006;28;20021;-81
2022/09/21 08:53:24;;;;;;;;;;;;;;;16.91;67.90;102640.19;5058249;28;20033;-81
2022/09/21 08:55:49;;;;;;;6.15;1.90;;;;;;;17.11;58.82;102633.31;5054363;28;19909;-81
2022/09/21 08:58:29;;;;;;;3.33;1.60;;;;;;;17.32;60.08;102635.31;5059098;28;20036;-81
2022/09/21 09:01:19;;;;;;;5.03;1.70;;;;;;;17.50;59.47;102638.41;5056362;28;20040;-81
2022/09/21 09:04:02;;;;;;;5.47;1.50;;;;;;;17.68;59.47;102630.75;5050645;28;20021;-80
2022/09/21 09:06:51;;;;;;;8.82;1.85;;;;;;;17.92;57.75;102644.97;5057889;28;20022;-81
2022/09/21 09:09:38;;;;;;;5.50;1.70;;;;;;;18.11;56.95;102643.50;5052518;28;20085;-81
2022/09/21 09:12:25;;;;;;;5.82;1.60;;;;;;;18.35;54.65;102634.44;5043500;28;20104;-80
2022/09/21 09:15:27;;;;;;;4.57;1.50;;;;;;;18.49;57.00;102639.56;5057174;28;20033;-80
2022/09/21 09:17:57;;;;;;;3.70;2.10;;;;;;;18.63;52.95;102639.25;5058585;28;20097;-80
2022/09/21 09:20:55;;;;;;;4.97;1.58;;;;;;;18.75;56.72;102644.59;5045542;28;20033;-81
2022/09/21 09:23:31;;;;;;;5.72;1.42;;;;;;;18.90;51.66;102645.19;5055447;28;20037;-81
2022/09/21 09:26:15;;;;;;;5.18;1.25;;;;;;;18.89;52.38;102636.28;5056023;28;20026;-81
2022/09/21 09:28:47;;;;;;;4.32;1.40;;;;;;;19.03;49.35;102643.19;5057167;28;20026;-82
2022/09/21 09:31:23;;;;;;;4.45;1.50;;;;;;;19.21;49.28;102647.00;5043119;28;20044;-81
2022/09/21 09:34:15;;;;;;;5.22;1.40;;;;;;;19.49;51.70;102635.72;5060479;28;20017;-80
2022/09/21 09:36:47;;;;;;;6.82;1.40;;;;;;;19.61;49.35;102650.81;5048963;28;20014;-81
2022/09/21 09:39:15;;;;;;;6.97;1.45;;;;;;;19.72;48.22;102645.34;5048591;28;20086;-81
2022/09/21 09:42:07;;;;;;;8.73;1.33;;;;;;;19.95;50.94;102645.19;5057750;28;20026;-81
2022/09/21 09:44:38;;;;;;;3.42;1.10;;;;;;;20.13;48.12;102648.13;5060898;28;20016;-81
2022/09/21 09:47:25;;;;;;;6.25;1.40;;;;;;;20.40;46.84;102644.81;5060025;28;20041;-81
2022/09/21 09:50:11;;;;;;;8.90;2.20;;;;;;;20.58;52.32;102649.50;5055665;28;20045;-79
2022/09/21 09:52:38;;;;;;;3.80;1.45;;;;;;;20.66;47.56;102647.00;5059366;28;20033;-79
2022/09/21 09:55:49;;;;;;;7.32;1.65;;;;;;;20.49;51.19;102643.97;5057395;28;20361;-80
2022/09/21 09:58:51;;;;;;;7.03;1.73;;;;;;;20.50;52.12;102645.69;5057955;28;20036;-80
2022/09/21 10:01:45;;;;;;;4.93;1.30;;;;;;;20.64;51.41;102641.75;5059086;28;20026;-81
2022/09/21 10:04:13;;;;;;;4.43;1.38;;;;;;;20.87;46.20;102650.44;5058535;28;20089;-81
2022/09/21 10:06:39;;;;;;;6.57;1.40;;;;;;;21.02;46.80;102647.31;5057260;28;20033;-81
2022/09/21 10:09:24;;;;;;;3.85;1.20;;;;;;;21.11;48.40;102648.31;5051027;28;20026;-78
2022/09/21 10:11:50;;;;;;;2.97;1.20;;;;;;;20.83;43.88;102646.31;5065448;28;20028;-80
2022/09/21 10:14:20;;;;;;;3.65;1.15;;;;;;;20.73;44.85;102644.59;5071453;28;20044;-82
2022/09/21 10:16:48;;;;;;;4.47;1.23;;;;;;;20.47;44.26;102634.31;5070212;28;20029;-81
2022/09/21 10:19:17;;;;;;;3.85;1.23;;;;;;;20.41;46.01;102632.16;5067309;28;20049;-81
2022/09/21 10:21:44;;;;;;;4.10;1.00;;;;;;;20.34;44.97;102642.66;5064440;28;20021;-80
2022/09/21 10:24:22;;;;;;;1.65;0.82;;;;;;;20.43;45.13;102640.97;5058384;28;20036;-81
2022/09/21 10:26:53;;;;;;;3.07;0.70;;;;;;;20.52;40.99;102638.28;5059504;28;20025;-81
2022/09/21 10:29:21;;;;;;;4.00;0.95;;;;;;;20.50;41.43;102636.69;5057986;28;20077;-80
2022/09/21 10:31:55;;;;;;;5.72;1.10;;;;;;;20.45;45.11;102637.16;5048346;28;20038;-80
2022/09/21 10:34:20;;;;;;;7.00;1.60;;;;;;;20.57;47.15;102628.91;5053384;28;20033;-80
2022/09/21 10:36:53;;;;;;;5.60;1.67;;;;;;;20.76;46.94;102628.13;5065938;28;20033;-80
2022/09/21 10:39:24;;;;;;;6.75;1.50;;;;;;;20.98;46.46;102625.13;5056196;28;20042;-79
2022/09/21 10:41:58;;;;;;;8.07;1.90;;;;;;;21.12;45.63;102625.72;5050428;28;20025;-80
2022/09/21 10:44:28;;;;;;;5.80;1.58;;;;;;;21.32;46.56;102619.25;5055539;28;20013;-77
2022/09/21 10:46:54;;;;;;;5.07;1.70;;;;;;;21.45;46.30;102624.38;5069240;28;20034;-80
2022/09/21 10:49:26;;;;;;;5.72;1.80;;;;;;;21.48;46.57;102615.13;5056388;28;20072;-78
2022/09/21 10:51:55;;;;;;;5.80;1.67;;;;;;;21.66;44.04;102609.81;5056204;28;20013;-76
2022/09/21 10:54:26;;;;;;;3.72;1.70;;;;;;;21.82;44.08;102607.34;5049878;28;20048;-79
2022/09/21 10:56:55;;;;;;;6.05;1.75;;;;;;;21.95;43.29;102612.41;5052640;28;20017;-79
2022/09/21 10:59:24;;;;;;;8.27;1.60;;;;;;;22.03;43.27;102615.19;5051315;28;20081;-80
2022/09/21 11:01:52;;;;;;;6.20;1.65;;;;;;;22.17;42.72;102614.69;5054030;28;20026;-80
2022/09/21 11:04:42;;;;;;;5.82;1.30;;;;;;;22.38;44.18;102612.75;5052987;28;20037;-78
2022/09/21 11:07:27;;;;;;;4.20;1.25;;;;;;;22.42;43.89;102609.59;5049065;28;20033;-78
2022/09/21 11:10:39;;;;;;;3.95;0.95;;;;;;;22.51;44.57;102608.66;5035465;28;20076;-76
2022/09/21 11:13:27;;;;;;;2.85;1.20;;;;;;;22.43;39.44;102610.44;5025422;28;20060;-80
2022/09/21 11:16:09;;;;;;;6.07;1.50;;;;;;;22.44;39.86;102609.44;5040680;28;20049;-82
2022/09/21 11:18:57;;;;;;;3.33;1.02;;;;;;;22.30;39.02;102610.78;5063608;28;20098;-81
2022/09/21 11:21:48;;;;;;;7.00;1.65;;;;;;;22.47;41.53;102606.44;5057472;28;20041;-81
2022/09/21 11:24:35;;;;;;;4.22;1.10;;;;;;;22.33;40.07;102608.66;5059208;28;20055;-82
2022/09/21 11:27:17;;;;;;;3.47;0.90;;;;;;;22.23;38.03;102607.81;5054873;28;20072;-81
2022/09/21 11:29:49;;;;;;;2.50;1.02;;;;;;;22.34;37.03;102612.22;5054005;28;20333;-81
2022/09/21 11:32:44;;;;;;;6.30;1.25;;;;;;;22.49;40.55;102607.97;5054026;28;20029;-82
2022/09/21 11:35:40;;;;;;;8.32;1.90;;;;;;;22.22;39.19;102608.00;5047391;28;20041;-78
2022/09/21 11:38:45;;;;;;;1.75;0.93;;;;;;;22.15;41.70;102610.47;5049134;28;20061;-78
2022/09/21 11:41:32;;;;;;;4.38;1.00;;;;;;;21.68;40.69;102611.34;5024102;28;20138;-78
2022/09/21 11:44:13;;;;;;;5.05;1.50;;;;;;;21.39;41.68;102587.94;5046733;28;20038;-79
2022/09/21 11:46:50;;;;;;;3.65;1.40;;;;;;;21.16;40.47;102592.81;5046897;28;20010;-77
2022/09/21 11:49:38;;;;;;;7.22;1.30;;;;;;;21.10;40.94;102593.44;5048347;28;20087;-80
2022/09/21 11:52:24;;;;;;;4.05;1.45;;;;;;;20.87;42.38;102596.41;5054752;28;20025;-81